Boulder City, Nevada Weather observations

Data are for observation ending at time listed.
 Day   Time    Ave.   Ave.  Ave.  Vector   Max.   Stn.    Total    Solar   Ave.  
  of    of     Air    Rel.  Wind   Wind    Wind   Baro.  Precip.   Rad.    Soil  
Year   Day     Temp.  Hum.  Speed  Dir.    Gust   Pres.                    Temp. 
2015   (PST)    F      %     mph   deg.    mph     mb.     in.     W/m2     F   
------------------------------------------------------------------------------
  57   14:40   67.6    15    4.0    14      6.9   926.1    0.00     510    59.4
  57   14:50   67.9    15    2.7    14      5.9   926.0    0.00     483    59.4
  57   15:00   68.2    15    3.0    26      6.2   925.9    0.00     455    59.5
  57   15:10   68.8    15    2.5    41      5.1   925.7    0.00     425    59.5
  57   15:20   68.4    15    3.7    20      7.5   925.8    0.00     395    59.5
  57   15:30   67.6    15    4.2    13      7.4   925.7    0.00     365    59.4
  57   15:40   67.9    15    3.1    16      6.9   925.6    0.00     334    59.4
  57   15:50   67.8    15    3.5    17      5.9   925.5    0.00     302    59.4
  57   16:00   67.7    15    3.6    16      6.8   925.4    0.00     269    59.4
  57   16:10   67.9    15    3.6    28      7.4   925.2    0.00     237    59.3
  57   16:20   68.2    14    2.2    53      4.9   925.1    0.00     205    59.3
  57   16:30   68.8    14    2.1    54      4.5   925.1    0.00     174    59.3
  57   16:40   68.5    15    1.5    47      3.9   925.0    0.00     143    59.3
  57   16:50   68.6    15    2.0    78      4.2   924.8    0.00     108    59.2
  57   17:00   67.6    15    2.1    89      5.6   924.6    0.00      65    59.2
  57   17:10   66.5    17    2.3   101      6.8   924.6    0.00      32    59.1
  57   17:20   64.9    20    3.1   105      5.4   924.6    0.00      13    59.1
  57   17:30   64.0    21    1.7    83      3.7   924.5    0.00       9    59.0
  57   17:40   63.2    22    2.2   108      6.1   924.5    0.00       3    58.9
  57   17:50   63.0    22    3.0   108      6.0   924.4    0.00       3    58.9
  57   18:00   62.6    21    3.2   108      7.1   924.4    0.00       0    58.8
  57   18:10   62.3    20    3.0   119      8.0   924.4    0.00       0    58.7
  57   18:20   62.0    20    2.2   107      5.4   924.3    0.00       0    58.7
  57   18:30   62.0    20    2.3   163      5.0   924.3    0.00       0    58.6
  57   18:40   61.2    20    2.3   224      3.9   924.3    0.00       0    58.5
  57   18:50   60.8    20    2.6   231      5.3   924.2    0.00       0    58.5
  57   19:00   60.0    22    2.1   251      4.2   924.2    0.00       0    58.4
  57   19:10   59.6    22    3.0   243      4.5   924.2    0.00       0    58.3
  57   19:20   59.7    21    3.1   242      4.8   924.2    0.00       0    58.2
  57   19:30   59.5    21    3.8   243      5.5   924.2    0.00       0    58.2
  57   19:40   59.6    21    4.2   250      6.6   924.2    0.00       0    58.1
  57   19:50   59.1    22    3.7   246      5.4   924.3    0.00       0    58.0
  57   20:00   57.9    25    2.8   235      4.2   924.4    0.00       0    57.9
  57   20:10   56.8    27    2.5   212      3.9   924.4    0.00       0    57.8
  57   20:20   55.8    28    2.7   214      3.6   924.3    0.00       0    57.8
  57   20:30   55.8    28    2.9   235      3.9   924.3    0.00       0    57.7
  57   20:40   54.4    33    3.3   209      4.4   924.1    0.00       0    57.6
  57   20:50   53.7    33    2.9   221      4.3   924.1    0.00       0    57.5
  57   21:00   54.0    33    2.9   214      3.7   924.1    0.00       0    57.5
  57   21:10   53.5    34    2.8   206      3.5   924.2    0.00       0    57.4
  57   21:20   53.3    35    2.6   200      3.6   924.1    0.00       0    57.3
  57   21:30   53.3    35    3.3   222      4.2   924.1    0.00       0    57.2
  57   21:40   54.0    33    2.6   246      4.0   924.2    0.00       0    57.1
  57   21:50   55.7    29    1.7   257      3.7   924.3    0.00       0    57.1
  57   22:00   56.2    28    1.6   342      4.0   924.4    0.00       0    57.0
  57   22:10   55.9    29    1.7    24      2.7   924.5    0.00       0    56.9
  57   22:20   55.0    32    1.5    20      4.0   924.4    0.00       0    56.8
  57   22:30   54.8    31    1.0   340      3.4   924.4    0.00       0    56.8
  57   22:40   55.7    29    1.7    14      5.0   924.4    0.00       0    56.7
  57   22:50   56.8    26    2.5   350      7.9   924.4    0.00       0    56.6
  57   23:00   58.1    25    4.6   358     11.0   924.4    0.00       0    56.6
  57   23:10   57.8    27    4.8     1     10.5   924.6    0.00       0    56.5
  57   23:20   57.2    29    5.5     2     13.2   924.6    0.00       0    56.4
  57   23:30   56.7    30    5.3     0     14.0   924.6    0.00       0    56.4
  57   23:40   56.4    31    5.3     1     12.1   924.8    0.00       0    56.3
  57   23:50   56.0    32    4.7   357     10.3   924.9    0.00       0    56.3
  58    0:00   55.9    32    5.7     5     13.2   924.9    0.00       0    56.2
  58    0:10   55.6    33    5.6     4     11.5   924.7    0.00       0    56.2
  58    0:20   55.5    34    6.0     8     13.7   924.7    0.00       0    56.2
  58    0:30   55.0    35    5.3     8      9.8   924.7    0.00       0    56.2
  58    0:40   54.7    35    4.6     6      9.9   924.7    0.00       0    56.1
  58    0:50   54.6    34    5.3    10     11.3   924.7    0.00       0    56.1
  58    1:00   55.2    31    7.6    10     14.4   924.7    0.00       0    56.1
  58    1:10   54.9    31    4.6     2     12.6   924.6    0.00       0    56.0
  58    1:20   54.2    32    3.6   357      8.2   924.6    0.00       0    56.0
  58    1:30   54.0    33    3.2   356      6.9   924.5    0.00       0    55.9
  58    1:40   53.8    33    3.3   355      7.1   924.4    0.00       0    55.9
  58    1:50   53.7    33    3.2   353      7.5   924.4    0.00       0    55.9
  58    2:00   53.5    34    3.2   358      7.3   924.3    0.00       0    55.8
  58    2:10   53.5    33    3.0   355      6.7   924.3    0.00       0    55.8
  58    2:20   53.7    31    3.4   352      7.9   924.3    0.00       0    55.7
  58    2:30   53.4    31    3.3   357      7.2   924.2    0.00       0    55.7
  58    2:40   53.2    31    2.9   350      7.5   924.2    0.00       0    55.7
  58    2:50   53.2    32    2.9   350      6.0   924.1    0.00       0    55.6
  58    3:00   53.2    32    2.9   353      6.8   923.9    0.00       0    55.6
  58    3:10   52.8    33    2.6   351      4.7   923.9    0.00       0    55.5
  58    3:20   52.7    33    2.5   353      5.9   923.9    0.00       0    55.5
  58    3:30   52.4    34    2.2   350      4.5   923.9    0.00       0    55.4
  58    3:40   52.5    33    1.9   348      4.3   924.0    0.00       0    55.4
  58    3:50   52.4    33    2.0   357      5.6   924.0    0.00       0    55.3
  58    4:00   52.2    32    2.9   357      7.0   923.9    0.00       0    55.3
  58    4:10   52.3    32    3.2     3      7.6   923.9    0.00       0    55.3
  58    4:20   52.5    32    4.0    10      8.3   923.9    0.00       0    55.2
  58    4:30   52.6    32    3.9     8      8.3   924.0    0.00       0    55.2
  58    4:40   52.4    32    3.6     2     10.5   923.9    0.00       0    55.1
  58    4:50   52.2    32    3.3   360      8.3   923.7    0.00       0    55.1
  58    5:00   52.1    32    3.0     2      7.7   923.7    0.00       0    55.0
  58    5:10   52.0    32    2.4     2      5.7   923.5    0.00       0    55.0
  58    5:20   51.8    33    3.5     5      8.2   923.5    0.00       0    55.0
  58    5:30   51.7    33    2.3     0      6.5   923.6    0.00       0    54.9
  58    5:40   51.3    34    2.3   354      6.2   923.7    0.00       0    54.9
  58    5:50   51.1    35    0.6   346      2.1   923.6    0.00       0    54.9
  58    6:00   50.0    37    0.6   331      1.9   923.7    0.00       0    54.8
  58    6:10   50.1    36    1.1   339      4.4   923.9    0.00       0    54.8
  58    6:20   49.9    38    0.8   332      2.4   923.9    0.00       3    54.7
  58    6:30   49.3    39    0.5   343      1.9   923.9    0.00       7    54.7
  58    6:40   48.9    41    0.2   297      2.3   923.9    0.00      12    54.6
  58    6:50   47.9    43    0.1   357      1.8   923.9    0.00      16    54.6
  58    7:00   47.4    46    0.2   300      1.7   923.8    0.00      23    54.5
  58    7:10   49.3    38    2.9    11      7.2   923.8    0.00      31    54.5
  58    7:20   51.0    34    3.5    16      7.5   923.9    0.00      36    54.4
  58    7:30   51.7    33    2.0    12      4.8   924.0    0.00      95    54.4
  58    7:40   52.6    32    2.8    18      6.9   924.0    0.00      92    54.3
  58    7:50   52.5    32    3.6    14      6.6   924.1    0.00      74    54.2
  58    8:00   52.4    32    4.4     9     11.0   924.2    0.00      93    54.2
  58    8:10   52.5    32    4.3    10     10.7   924.3    0.00     101    54.2
  58    8:20   52.5    33    3.0     9      8.7   924.2    0.00     109    54.2
  58    8:30   53.4    33    1.3     3      4.0   924.2    0.00     192    54.1
  58    8:40   54.1    32    3.2    12      6.1   924.3    0.00     256    54.2
  58    8:50   54.9    32    3.4    16      6.4   924.4    0.00     255    54.2
  58    9:00   55.0    32    3.2    17      6.0   924.5    0.00     247    54.2
  58    9:10   55.3    31    3.4     9      8.1   924.6    0.00     260    54.3
  58    9:20   55.0    32    3.6    12      7.4   924.6    0.00     238    54.3
  58    9:30   54.8    32    3.2     6      6.9   924.7    0.00     249    54.4
  58    9:40   55.3    32    3.0    20      6.1   924.7    0.00     338    54.4
  58    9:50   56.4    31    3.4    11      8.8   924.6    0.00     565    54.5
  58   10:00   57.4    30    3.0    18      7.7   924.6    0.00     371    54.6
  58   10:10   56.7    31    3.7    22      7.9   924.7    0.00     538    54.7
  58   10:20   58.3    30    2.8    28      6.7   924.7    0.00     698    54.8
  58   10:30   59.1    29    3.0    38      7.1   924.6    0.00     710    55.0
  58   10:40   59.7    28    2.7    41      5.1   924.7    0.00     720    55.1
  58   10:50   59.7    28    3.0    31      6.5   924.7    0.00     704    55.3
  58   11:00   60.3    28    3.6    30      9.4   924.5    0.00     725    55.5
  58   11:10   60.6    27    2.8    40      8.0   924.4    0.00     731    55.8
  58   11:20   60.9    27    3.6    47      9.1   924.2    0.00     735    56.1
  58   11:30   60.9    27    2.7    37      7.2   924.0    0.00     738    56.5
  58   11:40   61.3    26    3.0    38      7.3   923.9    0.00     742    56.9
  58   11:50   61.1    27    4.2    24      7.6   923.8    0.00     744    57.2
  58   12:00   61.3    26    4.8    30     10.7   923.6    0.00     743    57.6
  58   12:10   61.1    27    4.7    20     11.0   923.3    0.00     742    58.0
  58   12:20   61.0    27    5.0    29      9.6   923.1    0.00     740    58.4
  58   12:30   60.7    27    4.3    28      9.6   922.9    0.00     732    58.7
  58   12:40   61.8    26    4.5    46      8.1   922.7    0.00     725    58.9
  58   12:50   61.5    26    3.8    23      9.6   922.4    0.00     716    59.1
  58   13:00   62.0    24    5.0    20      9.6   922.2    0.00     706    59.3
  58   13:10   61.9    24    3.8    26      9.9   922.0    0.00     693    59.4
  58   13:20   62.4    24    3.4    18      8.0   921.9    0.00     677    59.5
  58   13:30   62.1    24    3.9    14      8.6   921.6    0.00     665    59.6
  58   13:40   62.1    23    3.1     6      6.9   921.5    0.00     645    59.7
  58   13:50   62.6    23    3.3    22      7.0   921.2    0.00     625    59.7
  58   14:00   62.8    24    3.6    16      8.8   921.1    0.00     607    59.8
  58   14:10   62.6    24    2.9    31      7.1   920.9    0.00     537    59.8
  58   14:20   62.8    24    3.3    21      7.9   920.8    0.00     547    59.9
  58   14:30   63.4    24    3.4    17      8.1   920.6    0.00     425    59.9

Return to Boulder City, Nevada graphs page.


Western Regional Climate Center,wrcc@dri.edu